Time;durP1;ratioP1;P1;durP2;ratioP2;P2;SDS_P1;SDS_P2;PMS_P1;PMS_P2;Temp;Humidity;BMP_temperature;BMP_pressure;BME280_temperature;BME280_humidity;BME280_pressure;Samples;Min_cycle;Max_cycle;Signal;HPM_P1;HPM_P2
2021/05/01 00:00:35;;;;;;;39.30;27.75;;;;;;;7.00;71.31;100511.92;1653304;83;25768;-74
2021/05/01 00:03:04;;;;;;;42.80;27.15;;;;;;;7.01;71.25;100512.27;1688781;83;25988;-74
2021/05/01 00:05:31;;;;;;;45.75;29.92;;;;;;;7.05;71.43;100509.61;1698522;83;26171;-75
2021/05/01 00:07:59;;;;;;;47.30;30.37;;;;;;;7.08;71.54;100497.80;1624705;86;27636;-74
2021/05/01 00:10:26;;;;;;;44.85;29.87;;;;;;;7.12;71.85;100499.93;1691243;83;25808;-75
2021/05/01 00:12:53;;;;;;;43.73;27.52;;;;;;;7.15;71.78;100499.61;1689578;83;25886;-75
2021/05/01 00:15:21;;;;;;;40.00;26.80;;;;;;;7.17;71.87;100508.27;1703692;83;25759;-75
2021/05/01 00:17:48;;;;;;;42.45;27.82;;;;;;;7.12;71.95;100515.10;1667772;83;26230;-75
2021/05/01 00:20:16;;;;;;;46.73;30.25;;;;;;;7.12;72.00;100513.25;1651362;83;27675;-75
2021/05/01 00:22:43;;;;;;;47.38;31.70;;;;;;;7.09;72.10;100517.59;1660702;84;25823;-75
2021/05/01 00:25:11;;;;;;;51.98;33.28;;;;;;;7.07;72.21;100522.26;1673962;83;26269;-75
2021/05/01 00:27:39;;;;;;;52.20;33.83;;;;;;;7.06;72.30;100521.91;1652544;83;26538;-75
2021/05/01 00:30:07;;;;;;;54.75;36.15;;;;;;;7.05;72.44;100525.59;1675449;83;26641;-74
2021/05/01 00:32:34;;;;;;;61.90;38.95;;;;;;;7.07;72.63;100517.42;1666674;83;27318;-74
2021/05/01 00:35:04;;;;;;;59.38;37.48;;;;;;;7.09;72.67;100512.76;1697471;83;26402;-74
2021/05/01 00:37:31;;;;;;;58.95;38.13;;;;;;;7.14;72.85;100523.27;1675957;83;25821;-74
2021/05/01 00:39:59;;;;;;;59.93;38.28;;;;;;;7.18;72.78;100511.28;1697931;83;26946;-74
2021/05/01 00:42:26;;;;;;;59.48;39.00;;;;;;;7.24;72.96;100501.28;1664943;83;25730;-75
2021/05/01 00:44:53;;;;;;;66.12;39.85;;;;;;;7.32;72.87;100506.59;1663431;85;28447;-74
2021/05/01 00:47:20;;;;;;;64.77;40.28;;;;;;;7.39;72.98;100513.41;1637278;83;26481;-74
2021/05/01 00:49:48;;;;;;;58.80;36.70;;;;;;;7.44;72.84;100513.75;1665361;83;25964;-75
2021/05/01 00:52:15;;;;;;;49.95;34.08;;;;;;;7.49;73.08;100513.56;1670004;85;25939;-74
2021/05/01 00:54:43;;;;;;;53.35;33.85;;;;;;;7.51;73.08;100515.56;1706825;83;25729;-75
2021/05/01 00:57:11;;;;;;;53.00;34.70;;;;;;;7.47;73.01;100498.25;1636965;85;28541;-74
2021/05/01 00:59:39;;;;;;;60.23;35.92;;;;;;;7.44;73.09;100503.09;1713583;82;25759;-75
2021/05/01 01:02:06;;;;;;;52.43;34.60;;;;;;;7.46;73.05;100512.56;1699177;82;25763;-75
2021/05/01 01:04:33;;;;;;;52.70;35.15;;;;;;;7.49;73.05;100517.56;1712572;82;25835;-75
2021/05/01 01:07:01;;;;;;;51.33;34.25;;;;;;;7.49;73.08;100520.72;1672362;82;26583;-75
2021/05/01 01:09:28;;;;;;;52.67;32.83;;;;;;;7.51;73.15;100520.05;1684284;82;27644;-75
2021/05/01 01:11:55;;;;;;;52.43;34.18;;;;;;;7.52;73.23;100531.90;1696053;82;25789;-75
2021/05/01 01:14:23;;;;;;;51.02;33.48;;;;;;;7.56;73.25;100531.05;1712967;82;25917;-74
2021/05/01 01:16:50;;;;;;;51.77;34.15;;;;;;;7.58;73.15;100523.72;1680985;83;26389;-75
2021/05/01 01:19:17;;;;;;;52.00;34.23;;;;;;;7.59;73.20;100519.53;1669559;82;25743;-75
2021/05/01 01:21:47;;;;;;;56.08;35.92;;;;;;;7.62;73.29;100522.38;1681258;82;27372;-74
2021/05/01 01:24:15;;;;;;;56.90;37.08;;;;;;;7.62;73.23;100523.70;1727819;82;26450;-75
2021/05/01 01:26:43;;;;;;;52.30;35.25;;;;;;;7.65;73.37;100534.88;1679780;82;25795;-75
2021/05/01 01:29:14;;;;;;;56.05;35.23;;;;;;;7.67;73.32;100538.20;1681883;82;25547;-75
2021/05/01 01:31:43;;;;;;;59.50;36.75;;;;;;;7.69;73.14;100539.36;1689826;82;26060;-75
2021/05/01 01:34:10;;;;;;;61.88;34.33;;;;;;;7.71;73.27;100541.36;1713556;82;28451;-75
2021/05/01 01:36:38;;;;;;;57.45;36.35;;;;;;;7.71;73.34;100544.02;1646289;85;26711;-75
2021/05/01 01:39:05;;;;;;;52.88;34.73;;;;;;;7.71;73.40;100542.20;1634093;85;25834;-75
2021/05/01 01:41:33;;;;;;;52.62;34.83;;;;;;;7.75;73.58;100541.34;1653541;85;25969;-75
2021/05/01 01:44:00;;;;;;;54.83;35.83;;;;;;;7.78;73.57;100542.34;1661398;85;26415;-75
2021/05/01 01:46:27;;;;;;;53.38;35.13;;;;;;;7.79;73.49;100549.33;1617473;86;28471;-75
2021/05/01 01:48:55;;;;;;;51.13;34.35;;;;;;;7.82;73.51;100554.83;1637325;86;26566;-74
2021/05/01 01:51:22;;;;;;;54.53;34.45;;;;;;;7.76;73.45;100546.50;1653511;85;26338;-75
2021/05/01 01:53:50;;;;;;;55.90;35.68;;;;;;;7.71;73.43;100537.36;1674263;84;26533;-74
2021/05/01 01:56:17;;;;;;;56.15;36.88;;;;;;;7.72;73.60;100545.17;1621399;85;25803;-75
2021/05/01 01:58:44;;;;;;;59.10;35.90;;;;;;;7.74;73.55;100530.36;1615536;86;28572;-75
2021/05/01 02:01:12;;;;;;;56.42;35.20;;;;;;;7.74;73.64;100521.84;1663373;85;25930;-75
2021/05/01 02:03:39;;;;;;;52.38;34.60;;;;;;;7.76;73.70;100526.50;1661704;85;25884;-75
2021/05/01 02:06:06;;;;;;;54.63;36.23;;;;;;;7.77;73.77;100538.84;1617453;86;26582;-75
2021/05/01 02:08:34;;;;;;;58.17;34.78;;;;;;;7.78;73.69;100544.48;1638869;86;26461;-75
2021/05/01 02:11:01;;;;;;;55.92;35.92;;;;;;;7.79;73.76;100548.83;1640984;85;27610;-75
2021/05/01 02:13:29;;;;;;;59.55;37.28;;;;;;;7.77;73.83;100554.84;1661119;85;26537;-75
2021/05/01 02:15:57;;;;;;;51.92;34.53;;;;;;;7.78;73.96;100557.02;1622255;85;26402;-75
2021/05/01 02:18:24;;;;;;;52.10;35.05;;;;;;;7.80;73.93;100547.01;1628724;85;25960;-74
2021/05/01 02:20:52;;;;;;;60.45;36.77;;;;;;;7.77;73.96;100528.17;1651083;84;26241;-75
2021/05/01 02:23:19;;;;;;;57.78;36.90;;;;;;;7.75;74.05;100529.34;1660072;85;28975;-75
2021/05/01 02:25:46;;;;;;;56.70;35.78;;;;;;;7.76;74.03;100539.02;1617152;86;25782;-74
2021/05/01 02:28:16;;;;;;;55.43;35.83;;;;;;;7.77;74.11;100540.17;1630094;86;26224;-75
2021/05/01 02:30:42;;;;;;;49.67;34.90;;;;;;;7.76;74.10;100545.69;1651892;86;25867;-75
2021/05/01 02:33:10;;;;;;;55.10;35.85;;;;;;;7.70;74.15;100539.67;1664352;85;25660;-75
2021/05/01 02:35:40;;;;;;;51.98;35.23;;;;;;;7.68;74.24;100525.69;1619819;82;27729;-75
2021/05/01 02:38:08;;;;;;;56.28;35.50;;;;;;;7.66;74.34;100526.36;1704442;82;25970;-74
2021/05/01 02:40:36;;;;;;;57.98;36.53;;;;;;;7.70;74.51;100531.19;1657608;83;25893;-75
2021/05/01 02:43:07;;;;;;;55.25;36.05;;;;;;;7.71;74.43;100522.20;1713580;82;25647;-75
2021/05/01 02:45:34;;;;;;;53.05;35.50;;;;;;;7.73;74.40;100521.52;1641720;84;26692;-75
2021/05/01 02:48:04;;;;;;;54.50;34.45;;;;;;;7.75;74.60;100524.85;1698033;82;29079;-75
2021/05/01 02:50:32;;;;;;;55.75;36.00;;;;;;;7.76;74.44;100531.02;1719424;82;25380;-75
2021/05/01 02:52:59;;;;;;;57.25;37.13;;;;;;;7.79;74.42;100525.33;1711317;82;26309;-75
2021/05/01 02:55:27;;;;;;;78.42;50.10;;;;;;;7.82;74.50;100530.34;1673183;82;26459;-75
2021/05/01 02:57:55;;;;;;;88.17;56.02;;;;;;;7.84;74.46;100539.48;1686845;82;25926;-75
2021/05/01 03:00:25;;;;;;;68.12;45.08;;;;;;;7.81;74.37;100543.33;1694201;82;27880;-75
2021/05/01 03:02:55;;;;;;;66.05;40.98;;;;;;;7.84;74.53;100536.83;1712310;82;25739;-75
2021/05/01 03:05:31;;;;;;;64.20;42.15;;;;;;;7.90;74.60;100546.31;1829940;77;26353;-75
2021/05/01 03:07:58;;;;;;;60.35;40.20;;;;;;;7.85;74.53;100547.31;1787825;78;25504;-75
2021/05/01 03:10:27;;;;;;;59.15;37.17;;;;;;;7.88;74.57;100542.14;1768527;79;28161;-75
2021/05/01 03:12:54;;;;;;;59.10;36.98;;;;;;;7.90;74.55;100528.97;1793079;78;26710;-75
2021/05/01 03:15:23;;;;;;;65.20;41.25;;;;;;;7.91;74.59;100532.48;1757791;78;25871;-75
2021/05/01 03:17:50;;;;;;;60.88;40.40;;;;;;;7.92;74.67;100534.12;1750349;79;25838;-74
2021/05/01 03:20:19;;;;;;;54.83;35.23;;;;;;;7.93;74.64;100538.47;1778173;78;26322;-75
2021/05/01 03:22:48;;;;;;;58.48;36.85;;;;;;;7.94;74.72;100529.45;1792933;78;28935;-75
2021/05/01 03:25:17;;;;;;;59.45;37.35;;;;;;;7.91;74.63;100526.66;1750951;78;26414;-75
2021/05/01 03:27:45;;;;;;;55.23;36.30;;;;;;;7.87;74.72;100523.16;1766278;78;25933;-75
2021/05/01 03:30:17;;;;;;;55.28;34.70;;;;;;;7.84;74.81;100507.00;1763172;78;25793;-75
2021/05/01 03:32:45;;;;;;;52.27;32.75;;;;;;;7.77;74.95;100479.34;1797081;78;25884;-75
2021/05/01 03:35:14;;;;;;;53.73;33.45;;;;;;;7.65;75.13;100465.56;1730363;78;28523;-74
2021/05/01 03:37:43;;;;;;;50.92;34.90;;;;;;;7.55;75.40;100471.57;1767843;79;26617;-75
2021/05/01 03:40:12;;;;;;;46.92;31.50;;;;;;;7.52;75.75;100464.42;1763210;79;25769;-74
2021/05/01 03:42:39;;;;;;;40.40;26.82;;;;;;;7.44;76.36;100462.59;1797576;78;25836;-74
2021/05/01 03:45:09;;;;;;;41.73;27.82;;;;;;;7.36;76.83;100473.77;1757969;78;26092;-75
2021/05/01 03:47:36;;;;;;;40.92;27.60;;;;;;;7.33;76.73;100482.13;1777074;78;27539;-74
2021/05/01 03:50:07;;;;;;;42.03;28.77;;;;;;;7.31;76.80;100486.78;1796748;78;25964;-75
2021/05/01 03:52:35;;;;;;;40.48;27.67;;;;;;;7.34;76.84;100481.94;1790956;78;25842;-74
2021/05/01 03:55:04;;;;;;;38.60;27.02;;;;;;;7.38;77.08;100490.42;1707199;78;25816;-75
2021/05/01 03:57:32;;;;;;;40.35;27.07;;;;;;;7.34;77.31;100508.59;1765969;78;25837;-74
2021/05/01 03:59:59;;;;;;;46.10;29.42;;;;;;;7.33;77.51;100520.75;1765794;80;27340;-74
2021/05/01 04:02:26;;;;;;;41.02;27.90;;;;;;;7.31;77.51;100529.41;1797079;78;26352;-74
2021/05/01 04:04:54;;;;;;;41.85;28.30;;;;;;;7.32;77.77;100522.58;1758736;78;25463;-75
2021/05/01 04:07:21;;;;;;;41.02;28.70;;;;;;;7.35;77.80;100524.08;1778787;78;26057;-75
2021/05/01 04:09:48;;;;;;;42.95;28.85;;;;;;;7.38;77.97;100523.73;1766792;78;26516;-75
2021/05/01 04:12:16;;;;;;;40.92;27.82;;;;;;;7.42;77.87;100521.09;1799108;78;28410;-75
2021/05/01 04:14:43;;;;;;;45.23;29.92;;;;;;;7.46;78.00;100511.22;1731382;78;25878;-75
2021/05/01 04:17:10;;;;;;;44.63;30.00;;;;;;;7.52;78.01;100523.91;1731446;81;25897;-75
2021/05/01 04:19:38;;;;;;;44.77;30.27;;;;;;;7.62;77.87;100527.20;1704039;81;26227;-75
2021/05/01 04:22:05;;;;;;;44.23;30.20;;;;;;;7.68;77.81;100517.69;1741465;81;25761;-74
2021/05/01 04:24:33;;;;;;;42.10;29.15;;;;;;;7.71;77.74;100508.03;1687332;81;27697;-75
2021/05/01 04:27:00;;;;;;;45.78;30.72;;;;;;;7.75;77.78;100508.02;1745885;81;25835;-75
2021/05/01 04:29:27;;;;;;;42.50;29.92;;;;;;;7.77;77.78;100509.52;1730858;81;26235;-75
2021/05/01 04:31:55;;;;;;;46.45;29.45;;;;;;;7.80;77.80;100511.02;1760720;81;26161;-75
2021/05/01 04:34:22;;;;;;;47.90;29.85;;;;;;;7.85;77.77;100521.17;1712342;81;25770;-75
2021/05/01 04:36:49;;;;;;;44.05;29.15;;;;;;;7.88;77.75;100522.98;1713494;81;27594;-75
2021/05/01 04:39:16;;;;;;;41.23;29.98;;;;;;;7.88;77.78;100511.47;1720941;81;25953;-75
2021/05/01 04:41:45;;;;;;;43.20;29.75;;;;;;;7.87;77.80;100506.64;1745571;81;26513;-75
2021/05/01 04:44:12;;;;;;;37.63;27.55;;;;;;;7.89;77.89;100516.62;1682880;81;25984;-75
2021/05/01 04:46:39;;;;;;;43.40;29.77;;;;;;;7.86;77.84;100519.66;1711924;82;26263;-75
2021/05/01 04:49:08;;;;;;;41.02;29.12;;;;;;;7.85;77.96;100521.98;1748791;81;27348;-74
2021/05/01 04:51:35;;;;;;;38.92;26.55;;;;;;;7.85;78.13;100524.64;1744682;81;25887;-74
2021/05/01 04:54:04;;;;;;;42.33;29.60;;;;;;;7.84;78.39;100521.66;1680459;81;25927;-75
2021/05/01 04:56:31;;;;;;;42.50;27.85;;;;;;;7.84;78.49;100527.49;1747014;81;26656;-75
2021/05/01 04:58:59;;;;;;;38.53;27.90;;;;;;;7.84;78.44;100530.16;1724539;81;25896;-74
2021/05/01 05:01:26;;;;;;;39.98;26.85;;;;;;;7.82;78.59;100527.67;1745708;81;28766;-73
2021/05/01 05:03:53;;;;;;;39.45;27.13;;;;;;;7.78;78.71;100529.02;1710180;81;26483;-74
2021/05/01 05:06:21;;;;;;;40.35;25.92;;;;;;;7.75;78.65;100528.84;1718798;81;26159;-74
2021/05/01 05:08:48;;;;;;;36.98;26.55;;;;;;;7.74;78.79;100533.03;1723485;81;26341;-75
2021/05/01 05:11:15;;;;;;;37.70;25.48;;;;;;;7.74;78.86;100529.84;1738168;81;26117;-75
2021/05/01 05:13:43;;;;;;;37.75;25.00;;;;;;;7.73;78.95;100522.86;1689685;81;27555;-75
2021/05/01 05:16:10;;;;;;;40.70;26.00;;;;;;;7.73;79.28;100522.86;1718496;81;26081;-75
2021/05/01 05:18:37;;;;;;;36.08;24.67;;;;;;;7.74;79.28;100526.36;1713308;82;26401;-75
2021/05/01 05:21:05;;;;;;;34.67;24.92;;;;;;;7.75;79.24;100525.34;1728083;81;26419;-74
2021/05/01 05:23:33;;;;;;;30.97;22.32;;;;;;;7.77;79.25;100521.52;1718570;81;25773;-75
2021/05/01 05:26:00;;;;;;;35.45;24.02;;;;;;;7.79;79.44;100524.00;1706666;81;27524;-75
2021/05/01 05:28:27;;;;;;;35.68;23.85;;;;;;;7.79;79.44;100512.00;1705219;82;32374;-74
2021/05/01 05:30:55;;;;;;;36.45;25.40;;;;;;;7.82;79.45;100518.34;1720956;82;26597;-73
2021/05/01 05:33:22;;;;;;;35.20;24.27;;;;;;;7.89;79.54;100533.96;1721802;82;26276;-75
2021/05/01 05:35:49;;;;;;;31.30;23.00;;;;;;;7.94;79.60;100535.63;1759677;80;26215;-74
2021/05/01 05:38:17;;;;;;;33.10;23.60;;;;;;;7.99;79.40;100535.95;1772115;80;28245;-74
2021/05/01 05:40:44;;;;;;;28.40;21.50;;;;;;;8.01;79.43;100536.61;1771034;79;26470;-74
2021/05/01 05:43:12;;;;;;;30.32;20.72;;;;;;;8.03;79.24;100539.09;1663555;82;26035;-74
2021/05/01 05:45:41;;;;;;;35.63;22.80;;;;;;;8.04;79.42;100538.92;1710157;82;26503;-74
2021/05/01 05:48:08;;;;;;;31.00;21.10;;;;;;;8.07;79.29;100535.92;1724147;81;26343;-74
2021/05/01 05:50:36;;;;;;;29.60;20.72;;;;;;;8.13;79.44;100537.05;1733138;82;28134;-74
2021/05/01 05:53:03;;;;;;;32.13;21.40;;;;;;;8.11;79.14;100531.91;1683554;84;26156;-74
2021/05/01 05:55:30;;;;;;;28.77;20.52;;;;;;;8.14;79.20;100537.40;1728170;81;25793;-74
2021/05/01 05:57:58;;;;;;;29.35;20.35;;;;;;;8.16;79.11;100542.90;1722236;81;25759;-74
2021/05/01 06:00:26;;;;;;;31.90;20.62;;;;;;;8.15;78.93;100534.55;1721543;82;25776;-74
2021/05/01 06:02:58;;;;;;;26.42;19.48;;;;;;;8.14;79.17;100520.89;1657812;84;27562;-78
2021/05/01 06:05:36;;;;;;;35.00;20.72;;;;;;;8.15;79.13;100525.70;1699475;82;26323;-79
2021/05/01 06:08:07;;;;;;;28.00;20.05;;;;;;;8.12;78.97;100532.73;1744857;80;25793;-76
2021/05/01 06:10:37;;;;;;;32.58;20.85;;;;;;;8.12;79.06;100536.74;1761913;80;26430;-76
2021/05/01 06:13:05;;;;;;;29.75;21.10;;;;;;;8.13;79.08;100539.72;1734438;80;25790;-76
2021/05/01 06:15:33;;;;;;;28.62;20.45;;;;;;;8.13;79.13;100551.23;1716547;80;27533;-76
2021/05/01 06:18:02;;;;;;;25.32;18.95;;;;;;;8.15;79.06;100555.05;1792127;78;25921;-76
2021/05/01 06:20:30;;;;;;;24.65;19.15;;;;;;;8.15;79.11;100558.56;1730121;82;25907;-76
2021/05/01 06:23:02;;;;;;;27.48;19.17;;;;;;;8.16;78.99;100566.91;1693145;81;26443;-76
2021/05/01 06:25:29;;;;;;;28.75;19.45;;;;;;;8.16;79.15;100573.58;1736584;81;25860;-76
2021/05/01 06:27:57;;;;;;;26.60;17.82;;;;;;;8.20;79.08;100580.23;1701458;82;27335;-75
2021/05/01 06:30:25;;;;;;;27.52;19.50;;;;;;;8.23;79.01;100575.06;1733939;82;26092;-75
2021/05/01 06:32:53;;;;;;;25.02;18.00;;;;;;;8.22;79.19;100573.38;1691168;82;25955;-75
2021/05/01 06:35:21;;;;;;;24.70;18.17;;;;;;;8.23;79.14;100575.87;1754913;80;26235;-75
2021/05/01 06:37:51;;;;;;;22.20;17.52;;;;;;;8.28;79.43;100583.39;1734072;81;26392;-75
2021/05/01 06:40:22;;;;;;;24.57;18.12;;;;;;;8.31;79.20;100584.39;1708650;82;28450;-75
2021/05/01 06:43:00;;;;;;;22.73;17.60;;;;;;;8.35;79.43;100581.22;1714477;82;25818;-75
2021/05/01 06:45:27;;;;;;;23.60;17.12;;;;;;;8.40;79.36;100585.51;1712224;81;25866;-76
2021/05/01 06:48:05;;;;;;;24.75;16.87;;;;;;;8.44;79.28;100591.36;1737814;81;25870;-76
2021/05/01 06:50:33;;;;;;;22.93;16.57;;;;;;;8.45;79.00;100596.52;1711969;82;26153;-75
2021/05/01 06:53:01;;;;;;;23.73;17.87;;;;;;;8.44;79.05;100603.37;1687063;82;27634;-75
2021/05/01 06:55:31;;;;;;;28.17;18.80;;;;;;;8.47;79.20;100601.67;1773578;80;25868;-75
2021/05/01 06:58:01;;;;;;;23.10;17.60;;;;;;;8.53;79.12;100599.67;1737602;82;25820;-75
2021/05/01 07:00:30;;;;;;;28.10;18.00;;;;;;;8.57;79.01;100601.48;1701897;82;26359;-75
2021/05/01 07:03:05;;;;;;;24.98;16.95;;;;;;;8.60;78.88;100601.95;1754318;80;25798;-75
2021/05/01 07:05:34;;;;;;;24.32;16.77;;;;;;;8.67;79.02;100604.27;1711428;82;27438;-75
2021/05/01 07:08:02;;;;;;;22.62;16.00;;;;;;;8.73;79.01;100604.05;1734104;82;26192;-75
2021/05/01 07:10:29;;;;;;;22.35;15.98;;;;;;;8.77;78.93;100600.05;1695159;82;25925;-75
2021/05/01 07:12:59;;;;;;;21.12;15.50;;;;;;;8.81;78.81;100600.84;1751812;80;26359;-75
2021/05/01 07:15:26;;;;;;;22.17;15.95;;;;;;;8.87;78.96;100603.33;1715856;82;25694;-75
2021/05/01 07:17:54;;;;;;;21.45;15.13;;;;;;;8.87;78.47;100603.33;1730932;82;28451;-75
2021/05/01 07:20:22;;;;;;;22.50;15.58;;;;;;;8.90;78.15;100606.47;1688224;82;25901;-75
2021/05/01 07:22:51;;;;;;;19.15;15.53;;;;;;;8.89;78.16;100609.33;1719166;82;25901;-75
2021/05/01 07:25:19;;;;;;;21.52;15.90;;;;;;;8.93;78.39;100619.48;1714758;82;25816;-75
2021/05/01 07:28:03;;;;;;;25.27;16.25;;;;;;;8.96;78.03;100612.44;1715426;81;26042;-75
2021/05/01 07:30:38;;;;;;;21.00;15.08;;;;;;;8.99;78.03;100605.42;1649943;84;27603;-75
2021/05/01 07:33:20;;;;;;;20.90;15.20;;;;;;;9.01;77.93;100607.41;1688890;83;25797;-75
2021/05/01 07:35:59;;;;;;;21.40;15.55;;;;;;;9.10;77.97;100599.68;1828945;77;25358;-76
2021/05/01 07:38:28;;;;;;;19.17;14.78;;;;;;;9.09;78.03;100599.34;1731687;79;26337;-76
2021/05/01 07:40:59;;;;;;;20.92;14.83;;;;;;;9.13;77.61;100600.64;1793053;78;28415;-75
2021/05/01 07:43:30;;;;;;;23.00;15.05;;;;;;;9.11;77.17;100596.52;1796648;78;25673;-75
2021/05/01 07:46:06;;;;;;;20.85;14.70;;;;;;;9.08;77.59;100592.34;1755563;78;26524;-75
2021/05/01 07:48:32;;;;;;;21.37;15.18;;;;;;;9.11;77.43;100593.31;1739224;81;25794;-75
2021/05/01 07:51:01;;;;;;;23.87;15.83;;;;;;;9.13;77.41;100588.62;1741363;81;25836;-75
2021/05/01 07:53:29;;;;;;;20.82;14.98;;;;;;;9.15;77.27;100586.59;1732304;81;27601;-75
2021/05/01 07:55:57;;;;;;;20.95;15.15;;;;;;;9.15;76.96;100583.12;1680591;81;26209;-75
2021/05/01 07:58:24;;;;;;;19.05;13.68;;;;;;;9.14;76.84;100582.28;1715851;82;26023;-76
2021/05/01 08:00:51;;;;;;;16.55;13.68;;;;;;;9.12;76.67;100575.44;1715285;82;25896;-75
2021/05/01 08:03:21;;;;;;;20.30;13.53;;;;;;;9.10;77.09;100581.47;1737279;81;26115;-75
2021/05/01 08:05:49;;;;;;;18.45;13.78;;;;;;;9.09;77.18;100573.95;1677414;82;28600;-75
2021/05/01 08:08:17;;;;;;;17.45;12.78;;;;;;;9.06;76.93;100572.16;1723974;82;26221;-75
2021/05/01 08:10:44;;;;;;;16.32;12.40;;;;;;;9.06;77.21;100566.80;1713228;82;26121;-75
2021/05/01 08:13:12;;;;;;;16.37;12.28;;;;;;;9.03;77.03;100563.98;1736592;82;26224;-76
2021/05/01 08:15:39;;;;;;;16.27;12.73;;;;;;;9.03;77.43;100566.66;1690366;82;25873;-75
2021/05/01 08:18:08;;;;;;;15.25;12.20;;;;;;;9.02;77.26;100564.17;1709601;82;28598;-75
2021/05/01 08:20:37;;;;;;;17.27;12.58;;;;;;;9.02;77.64;100552.98;1699613;81;26149;-75
2021/05/01 08:23:04;;;;;;;15.10;12.73;;;;;;;9.05;77.77;100553.11;1745189;81;25983;-75
2021/05/01 08:25:32;;;;;;;14.55;12.23;;;;;;;9.06;77.89;100553.45;1675973;82;26400;-76
2021/05/01 08:27:59;;;;;;;17.85;13.40;;;;;;;9.07;78.30;100551.09;1722236;81;25918;-75
2021/05/01 08:30:27;;;;;;;18.02;13.00;;;;;;;9.08;78.36;100548.76;1690541;81;27330;-75
2021/05/01 08:32:54;;;;;;;17.00;12.40;;;;;;;9.09;78.42;100549.91;1736609;82;25865;-76
2021/05/01 08:35:21;;;;;;;15.05;11.45;;;;;;;9.13;78.78;100553.07;1691777;82;25811;-76
2021/05/01 08:37:49;;;;;;;14.28;10.78;;;;;;;9.12;78.49;100554.06;1713765;81;25696;-75
2021/05/01 08:40:16;;;;;;;15.83;10.82;;;;;;;9.05;78.14;100560.62;1737063;81;25990;-76
2021/05/01 08:42:46;;;;;;;16.60;11.38;;;;;;;8.97;78.74;100546.00;1713212;81;28447;-75
2021/05/01 08:45:18;;;;;;;16.95;13.22;;;;;;;8.94;78.67;100551.68;1667247;82;25845;-75
2021/05/01 08:47:48;;;;;;;16.73;12.23;;;;;;;8.91;79.01;100559.23;1701762;81;25435;-76
2021/05/01 08:50:33;;;;;;;15.32;11.53;;;;;;;8.93;79.17;100562.55;1716294;81;35081;-75
2021/05/01 08:53:02;;;;;;;16.40;11.93;;;;;;;8.93;78.88;100569.23;1732896;82;25777;-76
2021/05/01 08:55:35;;;;;;;13.62;10.68;;;;;;;8.95;78.98;100571.22;1695163;82;27545;-75
2021/05/01 08:58:08;;;;;;;17.30;12.50;;;;;;;8.94;79.10;100571.72;1753844;80;25887;-75
2021/05/01 09:00:40;;;;;;;14.73;12.00;;;;;;;8.92;79.01;100574.23;1781161;80;26541;-75
2021/05/01 09:03:10;;;;;;;13.40;11.60;;;;;;;8.93;79.20;100578.58;1774494;80;26395;-75
2021/05/01 09:05:40;;;;;;;17.52;11.48;;;;;;;8.95;79.22;100581.91;1752827;80;26097;-76
2021/05/01 09:08:10;;;;;;;13.53;11.15;;;;;;;8.98;79.41;100581.03;1752858;80;27561;-76
2021/05/01 09:10:45;;;;;;;13.05;10.08;;;;;;;9.00;79.11;100588.37;1778421;80;26283;-75
2021/05/01 09:13:23;;;;;;;14.70;11.18;;;;;;;9.01;79.40;100582.53;1776096;80;25762;-76
2021/05/01 09:16:05;;;;;;;13.35;10.75;;;;;;;8.96;79.51;100585.73;1705692;80;25767;-75
2021/05/01 09:18:58;;;;;;;12.33;10.32;;;;;;;8.98;79.88;100589.58;1723295;80;26065;-76
2021/05/01 09:21:28;;;;;;;11.97;9.75;;;;;;;8.96;79.80;100588.39;1753066;80;28248;-75
2021/05/01 09:23:55;;;;;;;;;;;;;;;8.94;80.01;100587.74;1782051;80;26174;-76
2021/05/01 09:26:42;;;;;;;12.68;10.55;;;;;;;8.94;80.09;100581.59;1733108;80;25778;-76
2021/05/01 09:29:10;;;;;;;14.98;11.20;;;;;;;8.94;80.89;100585.60;1760484;80;26608;-76
2021/05/01 09:31:44;;;;;;;14.35;11.63;;;;;;;8.97;81.05;100588.73;1759064;80;25695;-76
2021/05/01 09:34:12;;;;;;;13.20;10.98;;;;;;;9.01;80.93;100586.53;1758249;78;27620;-76
2021/05/01 09:36:40;;;;;;;11.65;9.90;;;;;;;9.04;80.79;100585.70;1768040;78;25885;-76
2021/05/01 09:39:12;;;;;;;15.78;10.93;;;;;;;9.02;80.85;100583.71;1765897;79;26536;-76
2021/05/01 09:41:43;;;;;;;14.03;10.48;;;;;;;9.01;80.88;100579.86;1769120;79;25813;-76
2021/05/01 09:44:18;;;;;;;13.93;9.48;;;;;;;9.00;81.00;100582.22;1767784;79;25346;-75
2021/05/01 09:46:54;;;;;;;13.35;10.80;;;;;;;9.00;81.18;100583.55;1768833;78;27521;-75
2021/05/01 09:49:31;;;;;;;13.53;10.13;;;;;;;8.98;81.29;100581.03;1769598;79;25836;-75
2021/05/01 09:52:16;;;;;;;14.03;10.55;;;;;;;9.02;81.54;100584.20;1766619;78;25464;-75
2021/05/01 09:54:46;;;;;;;14.65;11.25;;;;;;;9.05;81.75;100592.69;1746102;78;26136;-76
2021/05/01 09:57:18;;;;;;;14.43;10.53;;;;;;;9.11;81.81;100591.16;1790341;78;25837;-75
2021/05/01 09:59:50;;;;;;;;;;;;;;;9.16;81.99;100587.44;1772290;79;27608;-75
2021/05/01 10:02:34;;;;;;;12.93;10.65;;;;;;;9.15;81.80;100586.59;1796774;78;26187;-75
2021/05/01 10:05:12;;;;;;;11.55;9.88;;;;;;;9.14;81.75;100588.96;1751308;80;26410;-75
2021/05/01 10:07:50;;;;;;;14.23;10.78;;;;;;;9.13;81.81;100588.62;1758885;78;25796;-75
2021/05/01 10:10:18;;;;;;;13.88;10.82;;;;;;;9.17;81.79;100591.78;1703991;83;25932;-76
2021/05/01 10:12:46;;;;;;;11.45;9.35;;;;;;;9.15;81.71;100587.94;1766926;80;27529;-75
2021/05/01 10:15:27;;;;;;;12.00;10.20;;;;;;;9.19;81.94;100591.11;1683624;82;25919;-76
2021/05/01 10:17:55;;;;;;;13.13;10.28;;;;;;;9.20;82.15;100582.89;1705922;82;25790;-75
2021/05/01 10:20:22;;;;;;;11.03;9.18;;;;;;;9.23;81.96;100575.03;1710371;81;25846;-75
2021/05/01 10:22:50;;;;;;;11.50;10.28;;;;;;;9.30;82.26;100572.79;1727640;81;25810;-75
2021/05/01 10:25:28;;;;;;;12.13;9.78;;;;;;;9.36;82.13;100577.94;1669337;81;28033;-76
2021/05/01 10:28:01;;;;;;;14.65;10.30;;;;;;;9.34;81.66;100576.77;1686591;81;25864;-75
2021/05/01 10:30:45;;;;;;;11.95;10.18;;;;;;;9.34;82.07;100575.42;1714939;81;25785;-76
2021/05/01 10:33:33;;;;;;;10.63;9.28;;;;;;;9.35;82.19;100577.60;1726144;81;25765;-76
2021/05/01 10:36:21;;;;;;;13.03;9.43;;;;;;;9.39;82.15;100580.77;1702405;82;26642;-74
2021/05/01 10:39:09;;;;;;;12.13;9.68;;;;;;;9.42;81.79;100581.23;1712707;81;27759;-75
2021/05/01 10:41:38;;;;;;;14.05;10.63;;;;;;;9.42;82.05;100581.23;1687230;81;26376;-75
2021/05/01 10:44:07;;;;;;;13.85;10.82;;;;;;;9.41;81.88;100574.73;1725472;81;25936;-76
2021/05/01 10:46:41;;;;;;;11.30;9.63;;;;;;;9.39;81.46;100572.75;1643590;83;26437;-75
2021/05/01 10:49:10;;;;;;;15.43;10.78;;;;;;;9.39;81.30;100574.89;1690273;81;25822;-76
2021/05/01 10:51:47;;;;;;;12.37;10.18;;;;;;;9.37;81.46;100575.58;1717492;81;27336;-76
2021/05/01 10:54:18;;;;;;;17.52;11.48;;;;;;;9.40;81.86;100567.71;1728007;81;25874;-76
2021/05/01 10:56:49;;;;;;;15.78;11.48;;;;;;;9.42;81.72;100558.50;1690233;83;25878;-75
2021/05/01 10:59:23;;;;;;;13.18;10.60;;;;;;;9.48;81.98;100549.76;1706241;83;25948;-76
2021/05/01 11:01:54;;;;;;;13.18;10.50;;;;;;;9.52;81.75;100547.05;1706412;83;26491;-75
2021/05/01 11:04:34;;;;;;;14.15;11.22;;;;;;;9.55;82.11;100547.19;1734710;82;27517;-76
2021/05/01 11:07:13;;;;;;;13.58;11.15;;;;;;;9.60;82.17;100542.14;1725057;80;26480;-76
2021/05/01 11:09:49;;;;;;;14.58;11.03;;;;;;;9.67;82.24;100539.04;1755140;80;26108;-76
2021/05/01 11:12:21;;;;;;;19.30;11.22;;;;;;;9.70;82.31;100528.83;1747247;80;26033;-75
2021/05/01 11:15:01;;;;;;;12.98;9.88;;;;;;;9.77;81.97;100532.41;1753112;80;25955;-76
2021/05/01 11:17:36;;;;;;;14.38;11.10;;;;;;;9.78;82.16;100522.05;1750563;80;28491;-75
2021/05/01 11:20:13;;;;;;;12.58;10.95;;;;;;;9.81;82.25;100517.69;1716295;81;26526;-76
2021/05/01 11:22:44;;;;;;;14.93;11.53;;;;;;;9.89;82.04;100520.27;1732288;81;25844;-76
2021/05/01 11:25:23;;;;;;;13.95;11.53;;;;;;;10.00;82.28;100521.15;1837532;77;25793;-76
2021/05/01 11:27:53;;;;;;;12.40;10.10;;;;;;;10.07;83.06;100524.72;1745197;77;25975;-75